Celtic Explorer — EIGB — position and weather

sailwx.info

Track history (hours):
 
Tides and Currents Weather Stations Pressure Air Temp Water Temp Dewpoint Dewpoint Depression Visibility Wind Speed Wind Dir Waves Ship Positions

Oceanographic research ship Celtic Explorer (Ireland)

Detailed information on ship capabilities available from University of Delaware's Ocean Information Center.

Last reported at 2020-Sep-21 01:24 UTC. Time now 2020-Sep-24 09:00 UTC.
Position N 53°12' W 009°39'.

Type: . MMSI: 250487000.

Date/timePositionNaut miles runAvg speedWind from/ knotsBaromVisibWave heightAir tempDewpointWater temp
2020-Sep-21 01:24N 53°12' W 009°39'0 0.0
2020-Sep-21 00:16N 53°12' W 009°39'0 0.0
2020-Sep-20 23:29N 53°12' W 009°39'0 0.0
2020-Sep-20 19:26N 53°12' W 009°39'0 0.0
2020-Sep-20 18:54N 53°12' W 009°39'0 0.0
2020-Sep-20 17:20N 53°12' W 009°39'0 0.0
2020-Sep-20 16:59N 53°12' W 009°39'0 0.0
2020-Sep-20 16:18N 53°12' W 009°39'0 0.0
2020-Sep-20 15:58N 53°12' W 009°39'0 0.0
2020-Sep-20 12:23N 53°12' W 009°39'0 0.0
2020-Sep-20 11:57N 53°12' W 009°39'0 0.0
2020-Sep-19 20:07N 53°12' W 009°39'  
2020-Sep-15 23:48N 53°11' W 009°48'412.3
2020-Sep-15 23:30N 53°12' W 009°53'1212.1
2020-Sep-15 22:30N 53°18' W 010°10'2512.3
2020-Sep-15 20:30N 53°42' W 010°22'296 9.8
2020-Sep-14 14:10N 58°03' W 006°11'16 9.7
2020-Sep-14 12:30N 58°15' W 005°53'23 9.2
2020-Sep-14 10:00N 58°34' W 005°28'46 7.6
2020-Sep-14 04:00N 59°02' W 004°17'4 7.7
2020-Sep-14 03:30N 59°04' W 004°11'4 8.3
2020-Sep-14 03:00N 59°06' W 004°04'4 8.7
2020-Sep-14 02:30N 59°09' W 003°57'14 9.1
2020-Sep-14 01:00N 59°17' W 003°36'201 9.5
2020-Sep-13 03:49N 60°04' E 002°51'15 8.5
2020-Sep-13 02:00N 60°05' E 003°21'19 7.8
2020-Sep-12 23:30N 60°06' E 004°00'19 7.4
2020-Sep-12 21:00N 60°07' E 004°37'4 7.4
2020-Sep-12 20:30N 60°08' E 004°45'7 7.0
2020-Sep-12 19:30N 60°08' E 004°59'7 3.5
2020-Sep-12 17:30N 60°12' E 005°11'12 8.3
2020-Sep-12 16:00N 60°24' E 005°19'0 0.0
2020-Sep-12 15:30N 60°24' E 005°19'9 8.5
2020-Sep-12 14:30N 60°26' E 005°02'38 8.4
2020-Sep-12 10:00N 60°58' E 004°20'1510.2
2020-Sep-12 08:30N 61°10' E 004°02'2010.0
2020-Sep-12 06:30N 61°28' E 003°41'1510.0
2020-Sep-12 04:59N 61°42' E 003°30'5 9.9
2020-Sep-12 04:30N 61°46' E 003°26'30 9.9
2020-Sep-12 01:30N 62°14' E 003°01'  
Track history (hours):
 
Tides and Currents Weather Stations Pressure Air Temp Water Temp Dewpoint Dewpoint Depression Visibility Wind Speed Wind Dir Waves Ship Positions

Oceanographic research ship Celtic Explorer (Ireland)

Detailed information on ship capabilities available from University of Delaware's Ocean Information Center.

Last reported at 2020-Sep-21 01:24 UTC. Time now 2020-Sep-24 09:00 UTC.
Position N 53°12' W 009°39'.

Type: . MMSI: 250487000.

Date/timePositionNaut miles runAvg speedWind from/ knotsBaromVisibWave heightAir tempDewpointWater temp
2020-Sep-21 01:24N 53°12' W 009°39'0 0.0
2020-Sep-21 00:16N 53°12' W 009°39'0 0.0
2020-Sep-20 23:29N 53°12' W 009°39'0 0.0
2020-Sep-20 19:26N 53°12' W 009°39'0 0.0
2020-Sep-20 18:54N 53°12' W 009°39'0 0.0
2020-Sep-20 17:20N 53°12' W 009°39'0 0.0
2020-Sep-20 16:59N 53°12' W 009°39'0 0.0
2020-Sep-20 16:18N 53°12' W 009°39'0 0.0
2020-Sep-20 15:58N 53°12' W 009°39'0 0.0
2020-Sep-20 12:23N 53°12' W 009°39'0 0.0
2020-Sep-20 11:57N 53°12' W 009°39'0 0.0
2020-Sep-19 20:07N 53°12' W 009°39'  
2020-Sep-15 23:48N 53°11' W 009°48'412.3
2020-Sep-15 23:30N 53°12' W 009°53'1212.1
2020-Sep-15 22:30N 53°18' W 010°10'2512.3
2020-Sep-15 20:30N 53°42' W 010°22'296 9.8
2020-Sep-14 14:10N 58°03' W 006°11'16 9.7
2020-Sep-14 12:30N 58°15' W 005°53'23 9.2
2020-Sep-14 10:00N 58°34' W 005°28'46 7.6
2020-Sep-14 04:00N 59°02' W 004°17'4 7.7
2020-Sep-14 03:30N 59°04' W 004°11'4 8.3
2020-Sep-14 03:00N 59°06' W 004°04'4 8.7
2020-Sep-14 02:30N 59°09' W 003°57'14 9.1
2020-Sep-14 01:00N 59°17' W 003°36'201 9.5
2020-Sep-13 03:49N 60°04' E 002°51'15 8.5
2020-Sep-13 02:00N 60°05' E 003°21'19 7.8
2020-Sep-12 23:30N 60°06' E 004°00'19 7.4
2020-Sep-12 21:00N 60°07' E 004°37'4 7.4
2020-Sep-12 20:30N 60°08' E 004°45'7 7.0
2020-Sep-12 19:30N 60°08' E 004°59'7 3.5
2020-Sep-12 17:30N 60°12' E 005°11'12 8.3
2020-Sep-12 16:00N 60°24' E 005°19'0 0.0
2020-Sep-12 15:30N 60°24' E 005°19'9 8.5
2020-Sep-12 14:30N 60°26' E 005°02'38 8.4
2020-Sep-12 10:00N 60°58' E 004°20'1510.2
2020-Sep-12 08:30N 61°10' E 004°02'2010.0
2020-Sep-12 06:30N 61°28' E 003°41'1510.0
2020-Sep-12 04:59N 61°42' E 003°30'5 9.9
2020-Sep-12 04:30N 61°46' E 003°26'30 9.9
2020-Sep-12 01:30N 62°14' E 003°01'  

Dump ship's entire track history